sensor_id;sensor_type;location;lat;lon;timestamp;pressure;altitude;pressure_sealevel;temperature;humidity
22311;BME280;11323;49.610;11.016;2022-10-16T00:02:48;97999.16;;;16.88;63.76
22311;BME280;11323;49.610;11.016;2022-10-16T00:07:48;98010.50;;;16.89;63.93
22311;BME280;11323;49.610;11.016;2022-10-16T00:12:48;98007.88;;;16.89;64.05
22311;BME280;11323;49.610;11.016;2022-10-16T00:17:49;98016.78;;;16.88;63.86
22311;BME280;11323;49.610;11.016;2022-10-16T00:22:50;98020.41;;;16.87;64.24
22311;BME280;11323;49.610;11.016;2022-10-16T00:27:50;98010.88;;;16.86;64.14
22311;BME280;11323;49.610;11.016;2022-10-16T00:32:50;98007.97;;;16.80;64.11
22311;BME280;11323;49.610;11.016;2022-10-16T00:37:51;98012.88;;;16.83;64.11
22311;BME280;11323;49.610;11.016;2022-10-16T00:42:51;98004.97;;;16.83;64.09
22311;BME280;11323;49.610;11.016;2022-10-16T00:47:54;97997.09;;;16.83;64.09
22311;BME280;11323;49.610;11.016;2022-10-16T00:52:56;98010.44;;;16.82;64.03
22311;BME280;11323;49.610;11.016;2022-10-16T00:57:57;98014.88;;;16.81;64.14
22311;BME280;11323;49.610;11.016;2022-10-16T01:03:00;98030.66;;;16.81;63.74
22311;BME280;11323;49.610;11.016;2022-10-16T01:08:19;98023.78;;;16.80;63.90
22311;BME280;11323;49.610;11.016;2022-10-16T01:13:28;98016.28;;;16.77;63.91
22311;BME280;11323;49.610;11.016;2022-10-16T01:28:56;98019.69;;;16.78;64.08
22311;BME280;11323;49.610;11.016;2022-10-16T01:34:02;98019.91;;;16.76;64.10
22311;BME280;11323;49.610;11.016;2022-10-16T01:39:05;98030.44;;;16.76;64.04
22311;BME280;11323;49.610;11.016;2022-10-16T01:44:17;98041.94;;;16.75;64.11
22311;BME280;11323;49.610;11.016;2022-10-16T01:49:21;98048.22;;;16.74;64.46
22311;BME280;11323;49.610;11.016;2022-10-16T01:54:26;98054.13;;;16.76;64.13
22311;BME280;11323;49.610;11.016;2022-10-16T01:59:31;98056.91;;;16.75;64.06
22311;BME280;11323;49.610;11.016;2022-10-16T02:04:36;98062.38;;;16.73;64.31
22311;BME280;11323;49.610;11.016;2022-10-16T02:09:38;98056.28;;;16.73;64.09
22311;BME280;11323;49.610;11.016;2022-10-16T02:14:39;98066.63;;;16.74;64.16
22311;BME280;11323;49.610;11.016;2022-10-16T02:19:41;98056.84;;;16.68;64.14
22311;BME280;11323;49.610;11.016;2022-10-16T02:24:51;98045.94;;;16.71;64.17
22311;BME280;11323;49.610;11.016;2022-10-16T02:30:19;98053.66;;;16.73;64.31
22311;BME280;11323;49.610;11.016;2022-10-16T02:35:18;98055.84;;;16.69;64.36
22311;BME280;11323;49.610;11.016;2022-10-16T02:40:20;98046.31;;;16.68;64.05
22311;BME280;11323;49.610;11.016;2022-10-16T02:45:21;98053.84;;;16.71;64.12
22311;BME280;11323;49.610;11.016;2022-10-16T02:50:22;98054.84;;;16.70;64.25
22311;BME280;11323;49.610;11.016;2022-10-16T02:55:22;98054.03;;;16.70;64.35
22311;BME280;11323;49.610;11.016;2022-10-16T03:00:23;98053.13;;;16.62;64.07
22311;BME280;11323;49.610;11.016;2022-10-16T03:05:24;98066.38;;;16.69;64.00
22311;BME280;11323;49.610;11.016;2022-10-16T03:10:24;98054.75;;;16.63;64.33
22311;BME280;11323;49.610;11.016;2022-10-16T03:15:24;98063.09;;;16.67;64.33
22311;BME280;11323;49.610;11.016;2022-10-16T03:20:26;98064.13;;;16.66;64.43
22311;BME280;11323;49.610;11.016;2022-10-16T03:25:26;98059.84;;;16.65;64.16
22311;BME280;11323;49.610;11.016;2022-10-16T03:30:27;98062.09;;;16.68;64.22
22311;BME280;11323;49.610;11.016;2022-10-16T03:35:27;98066.56;;;16.67;63.99
22311;BME280;11323;49.610;11.016;2022-10-16T03:40:28;98072.63;;;16.68;64.00
22311;BME280;11323;49.610;11.016;2022-10-16T03:45:28;98064.13;;;16.66;64.08
22311;BME280;11323;49.610;11.016;2022-10-16T03:50:29;98073.81;;;16.65;64.13
22311;BME280;11323;49.610;11.016;2022-10-16T03:55:30;98073.81;;;16.65;64.04
22311;BME280;11323;49.610;11.016;2022-10-16T04:00:30;98064.13;;;16.66;64.00
22311;BME280;11323;49.610;11.016;2022-10-16T04:05:30;98066.13;;;16.64;64.50
22311;BME280;11323;49.610;11.016;2022-10-16T04:10:31;98082.72;;;16.64;64.36
22311;BME280;11323;49.610;11.016;2022-10-16T04:15:31;98093.44;;;16.63;64.47
22311;BME280;11323;49.610;11.016;2022-10-16T04:20:33;98099.31;;;16.65;64.31
22311;BME280;11323;49.610;11.016;2022-10-16T04:25:33;98086.25;;;16.57;63.99
22311;BME280;11323;49.610;11.016;2022-10-16T04:30:34;98108.22;;;16.64;63.98
22311;BME280;11323;49.610;11.016;2022-10-16T04:35:34;98096.88;;;16.63;64.15
22311;BME280;11323;49.610;11.016;2022-10-16T04:40:34;98097.69;;;16.64;64.24
22311;BME280;11323;49.610;11.016;2022-10-16T04:45:36;98104.13;;;16.61;64.12
22311;BME280;11323;49.610;11.016;2022-10-16T04:50:37;98102.97;;;16.64;64.24
22311;BME280;11323;49.610;11.016;2022-10-16T04:55:40;98104.94;;;16.62;64.06
22311;BME280;11323;49.610;11.016;2022-10-16T05:00:41;98100.88;;;16.59;64.09
22311;BME280;11323;49.610;11.016;2022-10-16T05:05:45;98099.69;;;16.62;64.21
22311;BME280;11323;49.610;11.016;2022-10-16T05:10:46;98098.06;;;16.61;64.36
22311;BME280;11323;49.610;11.016;2022-10-16T05:15:47;98111.84;;;16.63;64.36
22311;BME280;11323;49.610;11.016;2022-10-16T05:20:48;98109.38;;;16.61;64.30
22311;BME280;11323;49.610;11.016;2022-10-16T05:25:53;98132.91;;;16.63;63.91
22311;BME280;11323;49.610;11.016;2022-10-16T05:30:55;98120.75;;;16.62;64.24
22311;BME280;11323;49.610;11.016;2022-10-16T05:35:56;98128.44;;;16.63;64.43
22311;BME280;11323;49.610;11.016;2022-10-16T05:40:56;98154.75;;;16.63;63.85
22311;BME280;11323;49.610;11.016;2022-10-16T05:46:04;98151.47;;;16.61;64.26
22311;BME280;11323;49.610;11.016;2022-10-16T05:51:07;98161.19;;;16.61;64.34
22311;BME280;11323;49.610;11.016;2022-10-16T05:56:10;98156.94;;;16.60;64.10
22311;BME280;11323;49.610;11.016;2022-10-16T06:01:13;98162.00;;;16.61;64.37
22311;BME280;11323;49.610;11.016;2022-10-16T06:06:16;98172.53;;;16.61;64.29
22311;BME280;11323;49.610;11.016;2022-10-16T06:11:21;98176.00;;;16.62;64.34
22311;BME280;11323;49.610;11.016;2022-10-16T06:16:23;98174.16;;;16.62;64.05
22311;BME280;11323;49.610;11.016;2022-10-16T06:21:25;98176.00;;;16.62;63.92
22311;BME280;11323;49.610;11.016;2022-10-16T06:26:28;98173.34;;;16.62;64.11
22311;BME280;11323;49.610;11.016;2022-10-16T06:31:29;98188.31;;;16.61;64.15
22311;BME280;11323;49.610;11.016;2022-10-16T06:36:33;98182.59;;;16.58;63.90
22311;BME280;11323;49.610;11.016;2022-10-16T06:41:34;98170.91;;;16.60;64.27
22311;BME280;11323;49.610;11.016;2022-10-16T06:46:47;98177.00;;;16.61;64.12
22311;BME280;11323;49.610;11.016;2022-10-16T06:51:47;98198.84;;;16.61;64.01
22311;BME280;11323;49.610;11.016;2022-10-16T06:56:48;98196.75;;;16.57;64.17
22311;BME280;11323;49.610;11.016;2022-10-16T07:01:48;98226.78;;;16.62;64.38
22311;BME280;11323;49.610;11.016;2022-10-16T07:06:49;98230.41;;;16.61;64.18
22311;BME280;11323;49.610;11.016;2022-10-16T07:11:49;98240.13;;;16.61;64.37
22311;BME280;11323;49.610;11.016;2022-10-16T07:16:51;98245.41;;;16.61;64.13
22311;BME280;11323;49.610;11.016;2022-10-16T07:21:51;98246.19;;;16.61;64.12
22311;BME280;11323;49.610;11.016;2022-10-16T07:26:51;98249.22;;;16.58;64.14
22311;BME280;11323;49.610;11.016;2022-10-16T07:31:52;98266.09;;;16.64;64.08
22311;BME280;11323;49.610;11.016;2022-10-16T07:36:52;98262.81;;;16.62;64.21
22311;BME280;11323;49.610;11.016;2022-10-16T07:41:53;98264.63;;;16.61;64.28
22311;BME280;11323;49.610;11.016;2022-10-16T07:46:53;98263.63;;;16.62;64.43
22311;BME280;11323;49.610;11.016;2022-10-16T07:51:53;98263.63;;;16.62;64.04
22311;BME280;11323;49.610;11.016;2022-10-16T07:56:54;98254.28;;;16.60;64.01
22311;BME280;11323;49.610;11.016;2022-10-16T08:01:54;98274.78;;;16.64;64.47
22311;BME280;11323;49.610;11.016;2022-10-16T08:06:55;98279.25;;;16.64;64.27
22311;BME280;11323;49.610;11.016;2022-10-16T08:11:55;98294.03;;;16.65;64.30
22311;BME280;11323;49.610;11.016;2022-10-16T08:16:56;98294.03;;;16.65;64.39
22311;BME280;11323;49.610;11.016;2022-10-16T08:21:56;98301.81;;;16.43;72.22
22311;BME280;11323;49.610;11.016;2022-10-16T08:26:56;98297.81;;;16.47;74.03
22311;BME280;11323;49.610;11.016;2022-10-16T08:31:57;98292.19;;;16.50;74.56
22311;BME280;11323;49.610;11.016;2022-10-16T08:36:57;98297.59;;;16.72;73.79
22311;BME280;11323;49.610;11.016;2022-10-16T08:42:15;98288.88;;;16.72;75.02
22311;BME280;11323;49.610;11.016;2022-10-16T08:47:31;98296.94;;;16.70;75.45
22311;BME280;11323;49.610;11.016;2022-10-16T08:52:39;98301.94;;;16.65;75.32
22311;BME280;11323;49.610;11.016;2022-10-16T08:57:40;98309.00;;;16.64;74.86
22311;BME280;11323;49.610;11.016;2022-10-16T09:02:53;98317.63;;;16.73;75.51
22311;BME280;11323;49.610;11.016;2022-10-16T09:23:44;98314.69;;;17.21;71.19
22311;BME280;11323;49.610;11.016;2022-10-16T09:28:45;98309.06;;;17.24;70.38
22311;BME280;11323;49.610;11.016;2022-10-16T09:33:50;98325.59;;;17.33;69.96
22311;BME280;11323;49.610;11.016;2022-10-16T09:39:02;98336.81;;;17.42;69.56
22311;BME280;11323;49.610;11.016;2022-10-16T09:44:06;98338.91;;;17.47;69.43
22311;BME280;11323;49.610;11.016;2022-10-16T09:49:24;98348.09;;;17.51;68.98
22311;BME280;11323;49.610;11.016;2022-10-16T09:54:24;98337.91;;;17.48;68.67
22311;BME280;11323;49.610;11.016;2022-10-16T09:59:25;98356.88;;;17.58;68.20
22311;BME280;11323;49.610;11.016;2022-10-16T10:04:38;98344.34;;;17.60;68.45
22311;BME280;11323;49.610;11.016;2022-10-16T10:09:39;98349.91;;;17.65;68.16
22311;BME280;11323;49.610;11.016;2022-10-16T10:14:45;98346.88;;;17.68;67.92
22311;BME280;11323;49.610;11.016;2022-10-16T10:30:38;98359.84;;;17.85;67.11
22311;BME280;11323;49.610;11.016;2022-10-16T11:08:17;98358.91;;;17.93;66.53
22311;BME280;11323;49.610;11.016;2022-10-16T11:24:19;98370.50;;;17.77;66.44
22311;BME280;11323;49.610;11.016;2022-10-16T11:29:27;98356.06;;;17.72;66.62
22311;BME280;11323;49.610;11.016;2022-10-16T11:34:38;98375.94;;;17.90;65.88
22311;BME280;11323;49.610;11.016;2022-10-16T11:39:43;98380.28;;;17.98;65.78
22311;BME280;11323;49.610;11.016;2022-10-16T11:50:01;98382.88;;;18.13;65.24
22311;BME280;11323;49.610;11.016;2022-10-16T11:55:14;98376.03;;;18.18;65.17
22311;BME280;11323;49.610;11.016;2022-10-16T12:00:28;98371.03;;;18.24;65.20
22311;BME280;11323;49.610;11.016;2022-10-16T12:11:53;98367.63;;;18.30;65.05
22311;BME280;11323;49.610;11.016;2022-10-16T12:16:28;98376.75;;;18.27;65.04
22311;BME280;11323;49.610;11.016;2022-10-16T12:21:32;98382.66;;;18.29;64.84
22311;BME280;11323;49.610;11.016;2022-10-16T12:26:37;98395.06;;;18.35;64.89
22311;BME280;11323;49.610;11.016;2022-10-16T12:31:45;98375.22;;;18.40;64.35
22311;BME280;11323;49.610;11.016;2022-10-16T12:36:47;98357.78;;;18.39;64.76
22311;BME280;11323;49.610;11.016;2022-10-16T12:42:00;98360.66;;;18.44;64.33
22311;BME280;11323;49.610;11.016;2022-10-16T12:47:02;98351.34;;;18.48;64.79
22311;BME280;11323;49.610;11.016;2022-10-16T12:52:03;98371.66;;;18.47;65.17
22311;BME280;11323;49.610;11.016;2022-10-16T13:12:55;98368.88;;;18.56;64.96
22311;BME280;11323;49.610;11.016;2022-10-16T13:28:11;98371.47;;;18.27;65.17
22311;BME280;11323;49.610;11.016;2022-10-16T13:33:19;98376.75;;;18.27;65.35
22311;BME280;11323;49.610;11.016;2022-10-16T13:38:26;98387.50;;;18.26;65.13
22311;BME280;11323;49.610;11.016;2022-10-16T13:48:35;98408.41;;;18.49;64.60
22311;BME280;11323;49.610;11.016;2022-10-16T13:53:35;98415.16;;;18.51;64.68
22311;BME280;11323;49.610;11.016;2022-10-16T13:58:36;98409.31;;;18.56;64.48
22311;BME280;11323;49.610;11.016;2022-10-16T14:03:37;98404.63;;;18.58;64.87
22311;BME280;11323;49.610;11.016;2022-10-16T14:08:42;98402.44;;;18.62;65.09
22311;BME280;11323;49.610;11.016;2022-10-16T14:13:45;98403.69;;;18.66;64.80
22311;BME280;11323;49.610;11.016;2022-10-16T14:18:53;98397.81;;;18.71;64.52
22311;BME280;11323;49.610;11.016;2022-10-16T14:23:55;98392.06;;;18.60;64.55
22311;BME280;11323;49.610;11.016;2022-10-16T14:29:18;98403.75;;;18.51;64.72
22311;BME280;11323;49.610;11.016;2022-10-16T14:34:32;98392.75;;;18.47;64.56
22311;BME280;11323;49.610;11.016;2022-10-16T14:39:33;98402.88;;;18.44;64.80
22311;BME280;11323;49.610;11.016;2022-10-16T14:44:34;98411.19;;;18.41;64.74
22311;BME280;11323;49.610;11.016;2022-10-16T14:49:35;98412.53;;;18.36;64.75
22311;BME280;11323;49.610;11.016;2022-10-16T14:54:36;98410.47;;;18.32;64.93
22311;BME280;11323;49.610;11.016;2022-10-16T14:59:41;98416.75;;;18.31;64.96
22311;BME280;11323;49.610;11.016;2022-10-16T15:04:44;98415.69;;;18.25;64.83
22311;BME280;11323;49.610;11.016;2022-10-16T15:09:45;98415.06;;;18.23;64.97
22311;BME280;11323;49.610;11.016;2022-10-16T15:14:45;98419.72;;;18.21;65.04
22311;BME280;11323;49.610;11.016;2022-10-16T15:19:45;98418.44;;;18.17;65.21
22311;BME280;11323;49.610;11.016;2022-10-16T15:24:46;98412.88;;;18.27;65.30
22311;BME280;11323;49.610;11.016;2022-10-16T15:29:46;98421.53;;;18.42;66.16
22311;BME280;11323;49.610;11.016;2022-10-16T15:34:47;63548.38;;;-146.54;100.00
22311;BME280;11323;49.610;11.016;2022-10-16T15:39:50;63548.38;;;-146.54;100.00
22311;BME280;11323;49.610;11.016;2022-10-16T15:44:50;63548.38;;;-146.54;100.00
22311;BME280;11323;49.610;11.016;2022-10-16T15:49:50;63548.38;;;-146.54;100.00
22311;BME280;11323;49.610;11.016;2022-10-16T15:54:51;63548.38;;;-146.54;100.00
22311;BME280;11323;49.610;11.016;2022-10-16T15:59:51;63548.38;;;-146.54;100.00
22311;BME280;11323;49.610;11.016;2022-10-16T16:04:52;63548.38;;;-146.54;100.00
22311;BME280;11323;49.610;11.016;2022-10-16T16:09:52;63548.38;;;-146.54;100.00
22311;BME280;11323;49.610;11.016;2022-10-16T16:14:52;63548.38;;;-146.54;100.00
22311;BME280;11323;49.610;11.016;2022-10-16T16:19:53;63548.38;;;-146.54;100.00
22311;BME280;11323;49.610;11.016;2022-10-16T16:24:53;63548.38;;;-146.54;100.00
22311;BME280;11323;49.610;11.016;2022-10-16T16:29:54;63548.38;;;-146.54;100.00
22311;BME280;11323;49.610;11.016;2022-10-16T16:34:55;63548.38;;;-146.54;100.00
22311;BME280;11323;49.610;11.016;2022-10-16T16:39:55;63548.38;;;-146.54;100.00
22311;BME280;11323;49.610;11.016;2022-10-16T16:44:58;63548.38;;;-146.54;100.00
22311;BME280;11323;49.610;11.016;2022-10-16T16:49:58;63548.38;;;-146.54;100.00
22311;BME280;11323;49.610;11.016;2022-10-16T16:54:59;63548.38;;;-146.54;100.00
22311;BME280;11323;49.610;11.016;2022-10-16T17:00:00;63548.38;;;-146.54;100.00
22311;BME280;11323;49.610;11.016;2022-10-16T17:05:00;63548.38;;;-146.54;100.00
22311;BME280;11323;49.610;11.016;2022-10-16T17:10:01;63548.38;;;-146.54;100.00
22311;BME280;11323;49.610;11.016;2022-10-16T17:15:02;63548.38;;;-146.54;100.00
22311;BME280;11323;49.610;11.016;2022-10-16T17:20:03;63548.38;;;-146.54;100.00
22311;BME280;11323;49.610;11.016;2022-10-16T17:25:04;63548.38;;;-146.54;100.00
22311;BME280;11323;49.610;11.016;2022-10-16T17:30:07;63548.38;;;-146.54;100.00
22311;BME280;11323;49.610;11.016;2022-10-16T17:35:07;63548.38;;;-146.54;100.00
22311;BME280;11323;49.610;11.016;2022-10-16T17:40:09;63548.38;;;-146.54;100.00
22311;BME280;11323;49.610;11.016;2022-10-16T17:45:10;63548.38;;;-146.54;100.00
22311;BME280;11323;49.610;11.016;2022-10-16T17:50:11;63548.38;;;-146.54;100.00
22311;BME280;11323;49.610;11.016;2022-10-16T17:55:11;63548.38;;;-146.54;100.00
22311;BME280;11323;49.610;11.016;2022-10-16T18:00:12;63548.38;;;-146.54;100.00
22311;BME280;11323;49.610;11.016;2022-10-16T18:05:13;63548.38;;;-146.54;100.00
22311;BME280;11323;49.610;11.016;2022-10-16T18:10:13;63548.38;;;-146.54;100.00
22311;BME280;11323;49.610;11.016;2022-10-16T18:15:13;63548.38;;;-146.54;100.00
22311;BME280;11323;49.610;11.016;2022-10-16T18:20:15;63548.38;;;-146.54;100.00
22311;BME280;11323;49.610;11.016;2022-10-16T18:25:15;63548.38;;;-146.54;100.00
22311;BME280;11323;49.610;11.016;2022-10-16T18:30:16;63548.38;;;-146.54;100.00
22311;BME280;11323;49.610;11.016;2022-10-16T18:35:16;63548.38;;;-146.54;100.00
22311;BME280;11323;49.610;11.016;2022-10-16T18:40:17;63548.38;;;-146.54;100.00
22311;BME280;11323;49.610;11.016;2022-10-16T18:45:18;63548.38;;;-146.54;100.00
22311;BME280;11323;49.610;11.016;2022-10-16T18:50:19;63548.38;;;-146.54;100.00
22311;BME280;11323;49.610;11.016;2022-10-16T18:55:19;63548.38;;;-146.54;100.00
22311;BME280;11323;49.610;11.016;2022-10-16T19:00:20;63548.38;;;-146.54;100.00
22311;BME280;11323;49.610;11.016;2022-10-16T19:05:21;63548.38;;;-146.54;100.00
22311;BME280;11323;49.610;11.016;2022-10-16T19:10:22;63548.38;;;-146.54;100.00
22311;BME280;11323;49.610;11.016;2022-10-16T19:15:22;63548.38;;;-146.54;100.00
22311;BME280;11323;49.610;11.016;2022-10-16T19:20:23;63548.38;;;-146.54;100.00
22311;BME280;11323;49.610;11.016;2022-10-16T19:25:24;63548.38;;;-146.54;100.00
22311;BME280;11323;49.610;11.016;2022-10-16T19:30:26;63548.38;;;-146.54;100.00
22311;BME280;11323;49.610;11.016;2022-10-16T19:35:27;63548.38;;;-146.54;100.00
22311;BME280;11323;49.610;11.016;2022-10-16T19:40:28;63548.38;;;-146.54;100.00
22311;BME280;11323;49.610;11.016;2022-10-16T19:45:28;63548.38;;;-146.54;100.00
22311;BME280;11323;49.610;11.016;2022-10-16T19:50:28;63548.38;;;-146.54;100.00
22311;BME280;11323;49.610;11.016;2022-10-16T19:55:32;63548.38;;;-146.54;100.00
22311;BME280;11323;49.610;11.016;2022-10-16T20:00:32;63548.38;;;-146.54;100.00
22311;BME280;11323;49.610;11.016;2022-10-16T20:05:33;63548.38;;;-146.54;100.00
22311;BME280;11323;49.610;11.016;2022-10-16T20:10:33;63548.38;;;-146.54;100.00
22311;BME280;11323;49.610;11.016;2022-10-16T20:15:36;63548.38;;;-146.54;100.00
22311;BME280;11323;49.610;11.016;2022-10-16T20:20:41;63548.38;;;-146.54;100.00
22311;BME280;11323;49.610;11.016;2022-10-16T20:25:42;63548.38;;;-146.54;100.00
22311;BME280;11323;49.610;11.016;2022-10-16T20:30:45;63548.38;;;-146.54;100.00
22311;BME280;11323;49.610;11.016;2022-10-16T20:35:47;63548.38;;;-146.54;100.00
22311;BME280;11323;49.610;11.016;2022-10-16T20:40:48;63548.38;;;-146.54;100.00
22311;BME280;11323;49.610;11.016;2022-10-16T20:45:58;63548.38;;;-146.54;100.00
22311;BME280;11323;49.610;11.016;2022-10-16T20:50:59;63548.38;;;-146.54;100.00
22311;BME280;11323;49.610;11.016;2022-10-16T20:56:00;63548.38;;;-146.54;100.00
22311;BME280;11323;49.610;11.016;2022-10-16T21:01:12;63548.38;;;-146.54;100.00
22311;BME280;11323;49.610;11.016;2022-10-16T21:06:13;63548.38;;;-146.54;100.00
22311;BME280;11323;49.610;11.016;2022-10-16T21:11:20;63548.38;;;-146.54;100.00
22311;BME280;11323;49.610;11.016;2022-10-16T21:16:21;63548.38;;;-146.54;100.00
22311;BME280;11323;49.610;11.016;2022-10-16T21:21:27;63548.38;;;-146.54;100.00
22311;BME280;11323;49.610;11.016;2022-10-16T21:26:28;63548.38;;;-146.54;100.00
22311;BME280;11323;49.610;11.016;2022-10-16T21:31:29;63548.38;;;-146.54;100.00
22311;BME280;11323;49.610;11.016;2022-10-16T21:36:35;63548.38;;;-146.54;100.00
22311;BME280;11323;49.610;11.016;2022-10-16T21:41:36;63548.38;;;-146.54;100.00
22311;BME280;11323;49.610;11.016;2022-10-16T21:46:39;63548.38;;;-146.54;100.00
22311;BME280;11323;49.610;11.016;2022-10-16T21:51:42;63548.38;;;-146.54;100.00
22311;BME280;11323;49.610;11.016;2022-10-16T21:56:43;63548.38;;;-146.54;100.00
22311;BME280;11323;49.610;11.016;2022-10-16T22:01:44;63548.38;;;-146.54;100.00
22311;BME280;11323;49.610;11.016;2022-10-16T22:06:44;63548.38;;;-146.54;100.00
22311;BME280;11323;49.610;11.016;2022-10-16T22:11:45;63548.38;;;-146.54;100.00
22311;BME280;11323;49.610;11.016;2022-10-16T22:16:46;63548.38;;;-146.54;100.00
22311;BME280;11323;49.610;11.016;2022-10-16T22:21:48;63548.38;;;-146.54;100.00
22311;BME280;11323;49.610;11.016;2022-10-16T22:26:52;63548.38;;;-146.54;100.00
22311;BME280;11323;49.610;11.016;2022-10-16T22:31:52;63548.38;;;-146.54;100.00
22311;BME280;11323;49.610;11.016;2022-10-16T22:36:53;63548.38;;;-146.54;100.00
22311;BME280;11323;49.610;11.016;2022-10-16T22:41:53;63548.38;;;-146.54;100.00
22311;BME280;11323;49.610;11.016;2022-10-16T22:46:55;63548.38;;;-146.54;100.00
22311;BME280;11323;49.610;11.016;2022-10-16T22:51:55;63548.38;;;-146.54;100.00
22311;BME280;11323;49.610;11.016;2022-10-16T22:56:56;63548.38;;;-146.54;100.00
22311;BME280;11323;49.610;11.016;2022-10-16T23:01:56;63548.38;;;-146.54;100.00
22311;BME280;11323;49.610;11.016;2022-10-16T23:06:56;63548.38;;;-146.54;100.00
22311;BME280;11323;49.610;11.016;2022-10-16T23:11:59;63548.38;;;-146.54;100.00
22311;BME280;11323;49.610;11.016;2022-10-16T23:16:59;63548.38;;;-146.54;100.00
22311;BME280;11323;49.610;11.016;2022-10-16T23:22:00;63548.38;;;-146.54;100.00
22311;BME280;11323;49.610;11.016;2022-10-16T23:27:00;63548.38;;;-146.54;100.00
22311;BME280;11323;49.610;11.016;2022-10-16T23:32:00;63548.38;;;-146.54;100.00
22311;BME280;11323;49.610;11.016;2022-10-16T23:37:01;63548.38;;;-146.54;100.00
22311;BME280;11323;49.610;11.016;2022-10-16T23:42:02;63548.38;;;-146.54;100.00
22311;BME280;11323;49.610;11.016;2022-10-16T23:47:03;63548.38;;;-146.54;100.00
22311;BME280;11323;49.610;11.016;2022-10-16T23:52:04;63548.38;;;-146.54;100.00
22311;BME280;11323;49.610;11.016;2022-10-16T23:57:04;63548.38;;;-146.54;100.00
